Time;durP1;ratioP1;P1;durP2;ratioP2;P2;SDS_P1;SDS_P2;PMS_P1;PMS_P2;Temp;Humidity;BMP_temperature;BMP_pressure;BME280_temperature;BME280_humidity;BME280_pressure;Samples;Min_cycle;Max_cycle;Signal;HPM_P1;HPM_P2
2021/09/17 00:01:41;;;;;;;3.80;1.38;;;15.40;99.90;;;;;;5057317;28;20170;-94
2021/09/17 00:04:08;;;;;;;4.22;1.38;;;15.40;99.90;;;;;;5058583;28;20204;-93
2021/09/17 00:06:34;;;;;;;8.38;1.83;;;15.30;99.90;;;;;;5057317;28;20178;-93
2021/09/17 00:08:59;;;;;;;4.25;1.55;;;15.30;99.90;;;;;;5057398;28;20465;-93
2021/09/17 00:11:25;;;;;;;3.90;1.50;;;15.30;99.90;;;;;;5057581;28;20177;-94
2021/09/17 00:13:51;;;;;;;5.13;1.50;;;15.40;99.90;;;;;;5057105;28;20174;-94
2021/09/17 00:16:17;;;;;;;3.28;1.45;;;15.40;99.90;;;;;;5058076;28;20640;-94
2021/09/17 00:18:43;;;;;;;4.20;1.77;;;15.30;99.90;;;;;;5056055;28;20591;-94
2021/09/17 00:21:09;;;;;;;4.38;1.30;;;15.30;99.90;;;;;;5057162;28;20184;-96
2021/09/17 00:23:35;;;;;;;3.17;1.65;;;15.30;99.90;;;;;;5057879;28;20572;-94
2021/09/17 00:26:01;;;;;;;8.07;2.03;;;15.40;99.90;;;;;;5059095;28;20166;-94
2021/09/17 00:28:27;;;;;;;5.05;1.55;;;15.40;99.90;;;;;;5060698;28;20225;-94
2021/09/17 00:30:53;;;;;;;5.40;1.40;;;15.30;99.90;;;;;;5061239;28;20189;-95
2021/09/17 00:33:19;;;;;;;3.78;1.63;;;15.30;99.90;;;;;;5061083;28;20190;-92
2021/09/17 00:35:45;;;;;;;3.38;1.48;;;15.40;99.90;;;;;;5061453;28;20177;-95
2021/09/17 00:38:12;;;;;;;4.97;1.63;;;15.40;99.90;;;;;;5060103;28;20241;-94
2021/09/17 00:40:38;;;;;;;5.90;1.65;;;15.30;99.90;;;;;;5060759;28;20174;-95
2021/09/17 00:43:03;;;;;;;5.28;1.50;;;15.30;99.90;;;;;;5062224;28;20188;-96
2021/09/17 00:45:29;;;;;;;2.78;1.70;;;15.30;99.90;;;;;;5061377;28;20177;-95
2021/09/17 00:47:55;;;;;;;4.53;1.30;;;15.30;99.90;;;;;;5061149;28;20343;-96
2021/09/17 00:50:24;;;;;;;4.65;1.52;;;15.30;99.90;;;;;;5061230;28;20181;-95
2021/09/17 00:52:51;;;;;;;2.67;1.45;;;15.30;99.90;;;;;;5060188;28;20223;-93
2021/09/17 00:55:17;;;;;;;5.18;1.75;;;15.30;99.90;;;;;;5061201;28;20545;-95
2021/09/17 00:57:43;;;;;;;3.58;1.23;;;15.30;99.90;;;;;;5060874;28;20194;-95
2021/09/17 01:00:12;;;;;;;3.72;1.45;;;15.20;99.90;;;;;;5060174;28;20320;-94
2021/09/17 01:02:38;;;;;;;4.93;1.77;;;15.30;99.90;;;;;;5059311;28;20170;-94
2021/09/17 01:05:06;;;;;;;4.13;1.65;;;15.20;99.90;;;;;;5059895;28;20618;-96
2021/09/17 01:07:32;;;;;;;4.93;1.60;;;15.30;99.90;;;;;;5331528;22;20269;-96
2021/09/17 01:09:59;;;;;;;3.38;1.70;;;15.30;99.90;;;;;;5017143;28;20187;-96
2021/09/17 01:12:25;;;;;;;8.48;1.95;;;15.20;99.90;;;;;;5017289;28;20176;-96
2021/09/17 01:14:51;;;;;;;3.13;1.55;;;15.20;99.90;;;;;;5000564;28;20187;-96
2021/09/17 01:17:19;;;;;;;3.33;1.50;;;15.20;99.90;;;;;;5016224;28;20203;-96
2021/09/17 01:19:45;;;;;;;7.82;1.90;;;15.20;99.90;;;;;;5015671;28;20293;-96
2021/09/17 01:22:11;;;;;;;4.60;1.42;;;15.20;99.90;;;;;;5015995;28;20179;-95
2021/09/17 01:24:41;;;;;;;6.05;1.55;;;15.20;99.90;;;;;;5016307;28;20194;-94
2021/09/17 01:27:07;;;;;;;4.15;1.95;;;15.20;99.90;;;;;;5016849;28;20175;-94
2021/09/17 01:29:34;;;;;;;6.20;1.83;;;15.20;99.90;;;;;;5015479;28;20179;-93
2021/09/17 01:31:59;;;;;;;5.07;1.73;;;15.20;99.90;;;;;;5015515;28;20181;-93
2021/09/17 01:34:25;;;;;;;2.60;1.50;;;15.20;99.90;;;;;;5015855;28;20262;-95
2021/09/17 01:36:52;;;;;;;6.05;1.77;;;15.20;99.90;;;;;;5015886;28;20671;-93
2021/09/17 01:39:19;;;;;;;2.80;1.67;;;15.20;99.90;;;;;;5015248;28;20215;-94
2021/09/17 01:41:46;;;;;;;8.68;1.75;;;15.10;99.90;;;;;;5015527;28;20174;-96
2021/09/17 01:44:11;;;;;;;7.25;1.90;;;15.10;99.90;;;;;;5015469;28;20180;-96
2021/09/17 01:46:37;;;;;;;4.47;1.83;;;15.10;99.90;;;;;;5015415;28;20179;-96
2021/09/17 01:49:03;;;;;;;5.35;2.20;;;15.10;99.90;;;;;;5014976;28;20540;-95
2021/09/17 01:51:29;;;;;;;5.78;2.20;;;15.10;99.90;;;;;;5015327;28;20278;-95
2021/09/17 01:53:55;;;;;;;4.40;2.22;;;15.10;99.90;;;;;;5015826;28;20622;-94
2021/09/17 01:56:21;;;;;;;7.43;2.25;;;15.10;99.90;;;;;;5015858;28;20175;-93
2021/09/17 01:58:47;;;;;;;3.13;2.30;;;15.00;99.90;;;;;;5015145;28;20638;-93
2021/09/17 02:01:13;;;;;;;5.65;2.50;;;15.00;99.90;;;;;;5015213;28;20183;-94
2021/09/17 02:03:39;;;;;;;4.65;2.28;;;15.00;99.90;;;;;;5015336;28;20179;-94
2021/09/17 02:06:05;;;;;;;4.28;2.00;;;15.00;99.90;;;;;;5015020;28;20610;-93
2021/09/17 02:08:32;;;;;;;4.28;2.40;;;15.00;99.90;;;;;;5014638;28;20397;-93
2021/09/17 02:10:57;;;;;;;5.80;2.50;;;15.00;99.90;;;;;;5015352;28;20179;-93
2021/09/17 02:13:23;;;;;;;6.65;2.80;;;15.00;99.90;;;;;;5015071;28;20183;-93
2021/09/17 02:15:51;;;;;;;6.72;2.72;;;15.00;99.90;;;;;;5014851;28;20179;-93
2021/09/17 02:18:19;;;;;;;5.05;2.53;;;15.00;99.90;;;;;;5014617;28;20207;-94
2021/09/17 02:20:46;;;;;;;7.20;3.03;;;15.00;99.90;;;;;;5014978;28;20183;-95
2021/09/17 02:23:12;;;;;;;5.38;2.55;;;15.10;99.90;;;;;;5014698;28;20198;-95
2021/09/17 02:25:38;;;;;;;8.23;2.92;;;15.00;99.90;;;;;;5014949;28;20179;-94
2021/09/17 02:28:04;;;;;;;4.20;2.78;;;15.10;99.90;;;;;;5014414;28;20508;-95
2021/09/17 02:30:30;;;;;;;5.03;2.70;;;15.10;99.90;;;;;;5014770;28;20622;-94
2021/09/17 02:32:56;;;;;;;5.90;2.70;;;15.10;99.90;;;;;;5014234;28;20175;-94
2021/09/17 02:35:21;;;;;;;7.28;3.08;;;15.00;99.90;;;;;;5014426;28;20693;-95
2021/09/17 02:37:47;;;;;;;5.78;2.90;;;15.10;99.90;;;;;;5014521;28;20172;-94
2021/09/17 02:40:16;;;;;;;4.25;3.03;;;15.10;99.90;;;;;;5016025;28;20360;-94
2021/09/17 02:42:42;;;;;;;4.72;2.70;;;15.10;99.90;;;;;;5014853;28;20211;-94
2021/09/17 02:45:09;;;;;;;5.40;2.88;;;15.10;99.90;;;;;;5014640;28;20186;-94
2021/09/17 02:47:36;;;;;;;4.70;2.70;;;15.10;99.90;;;;;;5013879;28;20199;-93
2021/09/17 02:50:03;;;;;;;4.07;2.45;;;15.10;99.90;;;;;;5014053;28;20187;-94
2021/09/17 02:52:28;;;;;;;3.65;2.45;;;15.10;99.90;;;;;;5014459;28;20206;-94
2021/09/17 02:54:54;;;;;;;6.85;3.03;;;15.10;99.90;;;;;;5014625;28;20206;-93
2021/09/17 02:57:20;;;;;;;3.80;2.67;;;15.00;99.90;;;;;;5014090;28;20183;-94
2021/09/17 02:59:46;;;;;;;4.50;2.63;;;15.10;99.90;;;;;;5014136;28;20241;-94
2021/09/17 03:02:13;;;;;;;3.20;2.60;;;15.00;99.90;;;;;;5014214;28;20181;-94
2021/09/17 03:04:39;;;;;;;4.20;2.60;;;15.00;99.90;;;;;;5014182;28;20179;-93
2021/09/17 03:07:05;;;;;;;6.32;3.30;;;15.00;99.90;;;;;;5015073;28;20306;-94
2021/09/17 03:09:30;;;;;;;4.45;2.80;;;15.10;99.90;;;;;;5013689;28;20233;-95
2021/09/17 03:11:56;;;;;;;7.53;3.30;;;15.00;99.90;;;;;;5014088;28;20175;-95
2021/09/17 03:14:22;;;;;;;6.50;3.00;;;15.00;99.90;;;;;;5013641;28;20179;-94
2021/09/17 03:16:48;;;;;;;4.35;3.33;;;15.10;99.90;;;;;;5014214;28;20508;-95
2021/09/17 03:19:14;;;;;;;6.13;3.28;;;15.10;99.90;;;;;;5013429;28;20207;-93
2021/09/17 03:21:40;;;;;;;4.63;3.45;;;15.10;99.90;;;;;;5013962;28;20175;-94
2021/09/17 03:24:06;;;;;;;4.07;2.90;;;15.00;99.90;;;;;;5014599;28;20187;-94
2021/09/17 03:26:32;;;;;;;6.65;3.55;;;15.00;99.90;;;;;;5014375;28;20183;-93
2021/09/17 03:28:59;;;;;;;5.15;3.35;;;15.00;99.90;;;;;;5013529;28;20206;-94
2021/09/17 03:31:25;;;;;;;5.95;3.80;;;15.00;99.90;;;;;;5013908;28;20179;-94
2021/09/17 03:33:51;;;;;;;9.55;3.90;;;15.00;99.90;;;;;;5014204;28;20179;-94
2021/09/17 03:36:16;;;;;;;7.65;3.58;;;15.00;99.90;;;;;;5013837;28;20198;-93
2021/09/17 03:38:42;;;;;;;6.00;4.07;;;15.00;99.90;;;;;;5013366;28;20302;-94
2021/09/17 03:41:08;;;;;;;5.97;3.83;;;14.90;99.90;;;;;;5013400;28;20214;-93
2021/09/17 03:43:34;;;;;;;8.60;4.40;;;14.90;99.90;;;;;;5013755;28;20614;-94
2021/09/17 03:45:59;;;;;;;7.40;3.90;;;14.90;99.90;;;;;;5013664;28;20172;-94
2021/09/17 03:48:25;;;;;;;6.93;4.10;;;14.90;99.90;;;;;;5013398;28;20270;-92
2021/09/17 03:50:51;;;;;;;5.55;3.75;;;15.00;99.90;;;;;;5013402;28;20266;-93
2021/09/17 03:53:17;;;;;;;9.30;4.00;;;14.90;99.90;;;;;;5013567;28;20183;-94
2021/09/17 03:55:43;;;;;;;4.65;3.92;;;15.00;99.90;;;;;;5014645;28;20584;-96
2021/09/17 03:58:09;;;;;;;5.60;3.80;;;14.90;99.90;;;;;;5013354;28;20187;-93
2021/09/17 04:00:35;;;;;;;6.22;4.00;;;14.90;99.90;;;;;;5013935;28;20189;-93
2021/09/17 04:03:02;;;;;;;5.65;4.22;;;14.90;99.90;;;;;;5017138;28;20262;-93
2021/09/17 04:05:27;;;;;;;5.13;4.10;;;14.90;99.90;;;;;;5017297;28;20210;-93
2021/09/17 04:07:53;;;;;;;6.20;4.25;;;14.90;99.90;;;;;;5017200;28;20583;-93
2021/09/17 04:10:20;;;;;;;4.95;4.13;;;14.90;99.90;;;;;;5017773;28;20222;-93
2021/09/17 04:12:46;;;;;;;8.23;4.00;;;14.90;99.90;;;;;;5017532;28;20179;-93
2021/09/17 04:15:12;;;;;;;6.43;3.70;;;14.90;99.90;;;;;;5017347;28;20190;-93
2021/09/17 04:17:38;;;;;;;6.40;4.15;;;14.90;99.90;;;;;;5016880;28;20692;-94
2021/09/17 04:20:06;;;;;;;5.45;3.92;;;14.90;99.90;;;;;;5017935;28;20215;-93
2021/09/17 04:22:32;;;;;;;6.38;3.97;;;14.90;99.90;;;;;;5017319;28;20183;-93
2021/09/17 04:24:57;;;;;;;6.57;4.30;;;14.80;99.90;;;;;;5016814;28;20560;-92
2021/09/17 04:27:25;;;;;;;6.75;4.13;;;14.80;99.90;;;;;;5016546;28;20237;-94
2021/09/17 04:29:51;;;;;;;7.45;4.40;;;14.70;99.90;;;;;;5016697;28;20626;-95
2021/09/17 04:32:17;;;;;;;6.90;4.25;;;14.70;99.90;;;;;;5016874;28;20182;-96
2021/09/17 04:34:43;;;;;;;7.93;4.95;;;14.70;99.90;;;;;;5016904;28;20179;-95
2021/09/17 04:37:09;;;;;;;9.90;4.68;;;14.60;99.90;;;;;;5016744;28;20186;-95
2021/09/17 04:39:35;;;;;;;7.57;4.53;;;14.60;99.90;;;;;;5016583;28;20211;-93
2021/09/17 04:42:01;;;;;;;7.05;4.50;;;14.60;99.90;;;;;;5016571;28;20185;-95
2021/09/17 04:44:27;;;;;;;5.15;4.28;;;14.60;99.90;;;;;;5017326;28;20187;-93
2021/09/17 04:46:53;;;;;;;6.15;4.22;;;14.60;99.90;;;;;;5016346;28;20205;-92
2021/09/17 04:49:18;;;;;;;6.88;4.20;;;14.60;99.90;;;;;;5016239;28;20190;-94
2021/09/17 04:51:44;;;;;;;8.43;4.40;;;14.60;99.90;;;;;;5016937;28;20502;-94
2021/09/17 04:54:12;;;;;;;9.63;4.55;;;14.60;99.90;;;;;;5016901;28;20488;-93
2021/09/17 04:56:39;;;;;;;7.13;4.57;;;14.60;99.90;;;;;;5016573;28;20632;-92
2021/09/17 04:59:05;;;;;;;5.70;4.35;;;14.60;99.90;;;;;;5015973;28;20668;-93
2021/09/17 05:01:31;;;;;;;6.90;4.28;;;14.60;99.90;;;;;;5016018;28;20605;-95
2021/09/17 05:03:57;;;;;;;6.47;4.43;;;14.60;99.90;;;;;;5016282;28;20276;-94
2021/09/17 05:06:22;;;;;;;6.30;4.15;;;14.60;99.90;;;;;;5016306;28;20542;-93
2021/09/17 05:08:48;;;;;;;7.13;4.07;;;14.60;99.90;;;;;;5015680;28;20237;-93
2021/09/17 05:11:14;;;;;;;7.07;4.80;;;14.60;99.90;;;;;;5015900;28;20270;-94
2021/09/17 05:13:40;;;;;;;5.75;4.03;;;14.60;99.90;;;;;;5016281;28;20709;-95
2021/09/17 05:16:06;;;;;;;6.15;3.90;;;14.60;99.90;;;;;;5016531;28;20297;-95
2021/09/17 05:18:32;;;;;;;7.55;4.80;;;14.70;99.90;;;;;;5015430;28;20210;-94
2021/09/17 05:20:57;;;;;;;6.25;4.35;;;14.70;99.90;;;;;;5016669;28;20632;-93
2021/09/17 05:23:23;;;;;;;8.05;3.50;;;14.70;99.90;;;;;;5016701;28;20620;-95
2021/09/17 05:25:49;;;;;;;9.38;4.85;;;14.70;99.90;;;;;;5015745;28;20187;-94
2021/09/17 05:28:15;;;;;;;7.72;4.53;;;14.80;99.90;;;;;;5016187;28;20179;-95
2021/09/17 05:30:40;;;;;;;7.13;4.72;;;14.80;99.90;;;;;;5016055;28;20189;-94
2021/09/17 05:33:06;;;;;;;7.80;4.60;;;14.80;99.90;;;;;;5015771;28;20589;-94
2021/09/17 05:35:32;;;;;;;10.10;4.85;;;14.80;99.90;;;;;;5015527;28;20190;-95
2021/09/17 05:37:59;;;;;;;5.93;4.57;;;14.80;99.90;;;;;;5015466;28;20186;-95
2021/09/17 05:40:25;;;;;;;7.70;4.35;;;14.80;99.90;;;;;;5015795;28;20187;-95
2021/09/17 05:42:51;;;;;;;10.30;4.70;;;14.80;99.90;;;;;;5016768;28;20234;-94
2021/09/17 05:45:17;;;;;;;7.93;4.63;;;14.80;99.90;;;;;;5016196;28;20199;-93
2021/09/17 05:47:43;;;;;;;6.40;4.65;;;14.90;99.90;;;;;;5015962;28;20187;-94
2021/09/17 05:50:10;;;;;;;7.75;5.00;;;14.80;99.90;;;;;;4999732;28;20598;-95
2021/09/17 05:52:38;;;;;;;8.30;5.03;;;14.80;99.90;;;;;;5019583;28;20167;-96
2021/09/17 05:55:04;;;;;;;10.48;5.03;;;14.90;99.90;;;;;;5018045;28;20190;-96
2021/09/17 05:57:30;;;;;;;7.82;4.63;;;14.90;99.90;;;;;;5017664;28;20274;-96
2021/09/17 05:59:56;;;;;;;7.38;4.57;;;14.90;99.90;;;;;;5017590;28;20410;-96
2021/09/17 06:02:22;;;;;;;6.78;4.60;;;14.90;99.90;;;;;;5016300;28;20183;-96
2021/09/17 06:04:48;;;;;;;9.35;4.55;;;14.90;99.90;;;;;;5016549;28;20187;-96
2021/09/17 06:07:14;;;;;;;6.15;4.43;;;15.00;99.90;;;;;;5015575;28;20231;-96
2021/09/17 06:09:40;;;;;;;10.23;4.65;;;15.00;99.90;;;;;;5015369;28;20175;-96
2021/09/17 06:12:07;;;;;;;8.20;4.47;;;15.00;99.90;;;;;;5017357;28;20179;-96
2021/09/17 06:14:33;;;;;;;11.55;4.72;;;15.00;99.90;;;;;;5016362;28;20218;-96
2021/09/17 06:16:59;;;;;;;6.95;4.40;;;15.00;99.90;;;;;;5015076;28;20517;-96
2021/09/17 06:19:25;;;;;;;9.07;4.00;;;15.00;99.90;;;;;;5015111;28;20218;-96
2021/09/17 06:21:51;;;;;;;7.00;3.60;;;15.10;99.90;;;;;;4997669;28;20279;-96
2021/09/17 06:24:21;;;;;;;5.38;3.20;;;15.10;99.90;;;;;;5003656;28;20190;-96
2021/09/17 06:26:51;;;;;;;5.97;3.28;;;15.10;99.90;;;;;;5094721;23;20244;-96
2021/09/17 06:29:16;;;;;;;4.47;3.60;;;15.10;99.90;;;;;;5033200;28;20171;-96
2021/09/17 06:31:42;;;;;;;7.43;3.53;;;15.10;99.90;;;;;;5015709;28;20179;-93
2021/09/17 06:34:08;;;;;;;6.90;4.00;;;15.10;99.90;;;;;;5014380;28;20306;-93
2021/09/17 06:36:34;;;;;;;7.22;3.83;;;15.10;99.90;;;;;;5014434;28;20175;-92
2021/09/17 06:39:03;;;;;;;7.57;3.60;;;15.10;99.90;;;;;;5014405;28;20221;-93
2021/09/17 06:41:30;;;;;;;6.75;3.20;;;15.10;99.90;;;;;;5014486;28;20179;-94
2021/09/17 06:43:56;;;;;;;6.43;3.03;;;15.20;99.90;;;;;;5015065;28;20175;-95
2021/09/17 06:46:25;;;;;;;7.07;3.03;;;15.20;99.90;;;;;;5019060;28;20179;-96
2021/09/17 06:48:51;;;;;;;4.85;2.88;;;15.20;99.90;;;;;;5018794;28;20708;-96
2021/09/17 06:51:18;;;;;;;6.00;2.70;;;15.20;99.90;;;;;;5017595;28;20233;-96
2021/09/17 06:53:44;;;;;;;6.70;2.95;;;15.30;99.90;;;;;;5021333;28;20183;-96
2021/09/17 06:56:12;;;;;;;7.38;2.80;;;15.30;99.90;;;;;;5020368;28;20183;-96
2021/09/17 06:58:38;;;;;;;7.15;2.70;;;15.40;99.90;;;;;;5001100;28;20261;-96
2021/09/17 07:01:04;;;;;;;7.20;2.50;;;15.40;99.90;;;;;;5021547;28;20182;-95
2021/09/17 07:03:30;;;;;;;3.42;2.30;;;15.50;99.90;;;;;;5016955;28;20183;-96
2021/09/17 07:05:56;;;;;;;6.47;2.25;;;15.50;99.90;;;;;;5015175;28;20189;-95
2021/09/17 07:08:22;;;;;;;5.88;2.28;;;15.60;99.90;;;;;;5009087;28;20187;-96
2021/09/17 07:10:56;;;;;;;7.35;2.45;;;15.50;99.90;;;;;;5015962;28;20189;-95
2021/09/17 07:13:23;;;;;;;4.03;2.00;;;15.60;99.90;;;;;;5021266;28;20222;-96
2021/09/17 07:15:49;;;;;;;2.25;1.60;;;15.60;99.90;;;;;;5029359;28;20189;-96
2021/09/17 07:18:15;;;;;;;7.05;2.03;;;15.60;99.90;;;;;;5014032;28;20206;-96
2021/09/17 07:20:41;;;;;;;3.88;2.08;;;15.60;99.90;;;;;;5017240;28;20180;-95
2021/09/17 07:23:20;;;;;;;5.90;2.03;;;15.70;99.90;;;;;;5027691;28;20171;-96
2021/09/17 07:26:18;;;;;;;3.50;1.70;;;15.60;99.90;;;;;;5033842;28;20241;-96
2021/09/17 07:28:43;;;;;;;4.30;1.58;;;15.70;99.90;;;;;;5020654;28;20183;-96
2021/09/17 07:31:12;;;;;;;2.95;1.90;;;15.70;99.90;;;;;;5030736;28;20202;-96
2021/09/17 07:33:43;;;;;;;10.05;2.30;;;15.80;99.90;;;;;;5030060;28;20171;-95
2021/09/17 07:36:12;;;;;;;3.33;1.67;;;15.80;99.90;;;;;;5030948;28;20187;-95
2021/09/17 07:38:51;;;;;;;6.40;1.85;;;15.90;99.90;;;;;;5029446;28;20294;-96
2021/09/17 07:41:23;;;;;;;3.97;1.60;;;15.90;99.90;;;;;;5033915;28;20201;-96
2021/09/17 07:43:49;;;;;;;3.17;1.50;;;15.90;99.90;;;;;;5029996;28;20624;-96
2021/09/17 07:46:15;;;;;;;4.47;1.50;;;15.90;99.90;;;;;;5014398;28;20179;-96
2021/09/17 07:48:41;;;;;;;6.47;1.60;;;16.00;99.90;;;;;;5027060;28;20190;-96
2021/09/17 07:51:07;;;;;;;4.70;1.80;;;16.00;99.90;;;;;;5029564;28;20183;-96
2021/09/17 07:53:32;;;;;;;2.97;1.60;;;16.10;99.90;;;;;;5024061;28;20206;-95
2021/09/17 07:56:01;;;;;;;4.35;2.00;;;16.10;99.90;;;;;;5023450;28;20206;-96
2021/09/17 07:58:26;;;;;;;5.60;1.70;;;16.10;99.90;;;;;;5024597;28;20211;-95
2021/09/17 08:00:53;;;;;;;7.10;1.90;;;16.10;99.90;;;;;;5023615;28;20185;-95
2021/09/17 08:03:21;;;;;;;3.25;1.50;;;16.00;99.90;;;;;;5019856;28;20234;-96
2021/09/17 08:05:49;;;;;;;2.13;1.38;;;15.90;99.90;;;;;;5019532;28;20183;-95
2021/09/17 08:08:15;;;;;;;4.90;1.63;;;15.90;99.90;;;;;;5030703;28;20179;-95
2021/09/17 08:10:44;;;;;;;4.25;1.67;;;15.90;99.90;;;;;;5035368;28;20183;-96
2021/09/17 08:13:10;;;;;;;3.67;1.55;;;15.90;99.90;;;;;;5019749;28;20177;-96
2021/09/17 08:15:35;;;;;;;1.35;1.10;;;15.90;99.90;;;;;;5021927;28;20171;-96
2021/09/17 08:18:03;;;;;;;4.93;1.50;;;16.10;99.90;;;;;;5022741;28;20198;-96
2021/09/17 08:20:30;;;;;;;4.97;1.48;;;16.10;99.90;;;;;;5004004;28;20540;-96
2021/09/17 08:22:57;;;;;;;5.65;1.23;;;16.20;99.90;;;;;;5021461;28;20195;-95
2021/09/17 08:25:23;;;;;;;7.18;1.63;;;16.20;99.90;;;;;;5021058;28;20183;-95
2021/09/17 08:27:48;;;;;;;6.55;1.42;;;16.30;99.90;;;;;;5023245;28;20211;-95
2021/09/17 08:30:25;;;;;;;5.05;1.42;;;16.30;99.90;;;;;;5031302;28;20179;-94
2021/09/17 08:32:55;;;;;;;3.53;1.20;;;16.40;99.90;;;;;;5032411;28;20229;-96
2021/09/17 08:35:27;;;;;;;2.60;1.08;;;16.40;99.90;;;;;;5013580;28;20191;-95
2021/09/17 08:37:52;;;;;;;1.15;0.93;;;16.50;99.90;;;;;;5016797;28;20175;-95
2021/09/17 08:40:18;;;;;;;1.90;1.05;;;16.50;99.90;;;;;;5026696;28;20653;-96
2021/09/17 08:42:44;;;;;;;4.03;1.00;;;16.50;99.90;;;;;;5027314;28;20159;-96
2021/09/17 08:45:13;;;;;;;3.13;1.10;;;16.60;99.90;;;;;;5025442;28;20183;-96
2021/09/17 08:47:41;;;;;;;3.95;1.08;;;16.50;99.90;;;;;;5020394;28;20271;-96
2021/09/17 08:50:08;;;;;;;4.03;1.17;;;16.50;99.90;;;;;;5022210;28;20179;-96
2021/09/17 08:52:35;;;;;;;1.65;0.70;;;16.60;99.90;;;;;;5020780;28;20191;-96
2021/09/17 08:55:04;;;;;;;5.93;0.90;;;16.60;99.90;;;;;;5027313;28;20175;-96
2021/09/17 08:57:29;;;;;;;2.50;1.00;;;16.60;99.90;;;;;;5023194;28;20180;-96
2021/09/17 08:59:58;;;;;;;2.63;0.80;;;16.70;99.90;;;;;;5022728;28;20536;-95
2021/09/17 09:02:27;;;;;;;4.05;1.00;;;16.70;99.90;;;;;;4987476;28;20175;-96
2021/09/17 09:05:01;;;;;;;2.85;0.80;;;16.70;99.90;;;;;;5019352;28;20183;-96
2021/09/17 09:07:38;;;;;;;2.15;0.70;;;16.80;99.90;;;;;;5020446;28;20182;-96
2021/09/17 09:10:08;;;;;;;2.50;0.95;;;16.80;99.90;;;;;;5020625;28;20202;-95
2021/09/17 09:12:43;;;;;;;6.80;1.05;;;16.70;99.90;;;;;;5024043;28;20174;-96
2021/09/17 09:15:13;;;;;;;3.28;0.77;;;16.50;99.90;;;;;;5020854;28;20198;-96
2021/09/17 09:17:39;;;;;;;2.88;0.80;;;16.40;99.90;;;;;;5022028;28;20594;-96
2021/09/17 09:20:41;;;;;;;2.40;0.90;;;16.30;99.90;;;;;;5024863;28;20286;-96
2021/09/17 09:23:13;;;;;;;2.03;0.75;;;16.30;99.90;;;;;;5025257;28;20179;-96
2021/09/17 09:26:07;;;;;;;4.47;0.90;;;16.20;99.90;;;;;;5021174;28;20303;-96
2021/09/17 09:28:44;;;;;;;4.95;0.70;;;16.20;99.90;;;;;;5017860;28;20211;-96
2021/09/17 09:31:15;;;;;;;1.63;0.70;;;16.20;99.90;;;;;;5018289;28;20202;-94
2021/09/17 09:33:49;;;;;;;1.27;0.65;;;16.10;99.90;;;;;;5015627;28;20185;-94
2021/09/17 09:36:20;;;;;;;2.05;0.73;;;16.10;99.90;;;;;;5015821;28;20164;-94
2021/09/17 09:38:54;;;;;;;1.05;0.60;;;16.20;99.90;;;;;;5015324;28;20195;-94
2021/09/17 09:41:26;;;;;;;0.60;0.60;;;16.20;99.90;;;;;;5015576;28;20198;-96
2021/09/17 09:44:02;;;;;;;3.95;0.82;;;16.30;99.90;;;;;;5015957;28;20171;-96
2021/09/17 09:46:32;;;;;;;4.25;0.80;;;16.50;99.90;;;;;;5017560;28;20225;-96
2021/09/17 09:49:06;;;;;;;3.10;0.65;;;16.60;99.90;;;;;;5017821;28;20295;-96
2021/09/17 09:51:37;;;;;;;4.93;0.60;;;16.90;99.90;;;;;;5019896;28;20189;-96
2021/09/17 09:54:10;;;;;;;4.35;0.82;;;17.10;99.90;;;;;;5021346;28;20189;-96
2021/09/17 09:56:37;;;;;;;2.45;0.70;;;17.30;99.90;;;;;;5020189;28;20229;-95
2021/09/17 09:59:05;;;;;;;3.13;0.68;;;17.30;99.90;;;;;;5020841;28;20301;-95
2021/09/17 10:01:34;;;;;;;1.90;0.70;;;17.40;99.90;;;;;;5040741;28;20232;-95
2021/09/17 10:04:03;;;;;;;4.40;0.70;;;17.60;99.90;;;;;;5043066;28;20660;-96
2021/09/17 10:06:38;;;;;;;3.33;0.85;;;17.70;99.90;;;;;;5046258;28;20233;-96
2021/09/17 10:09:09;;;;;;;2.15;0.77;;;17.70;99.90;;;;;;5038677;28;20174;-96
2021/09/17 10:11:36;;;;;;;4.70;0.80;;;17.60;99.90;;;;;;5027207;28;20210;-96
2021/09/17 10:14:07;;;;;;;3.00;0.90;;;17.30;99.90;;;;;;5020379;28;20199;-96
2021/09/17 10:16:34;;;;;;;2.40;0.65;;;17.30;99.90;;;;;;5019157;28;20175;-96
2021/09/17 10:19:05;;;;;;;1.92;0.80;;;17.30;99.90;;;;;;5015600;28;20728;-96
2021/09/17 10:21:49;;;;;;;7.05;0.77;;;17.10;99.90;;;;;;5019043;28;20194;-96
2021/09/17 10:24:27;;;;;;;1.23;0.68;;;17.20;99.90;;;;;;5016676;28;20194;-96
2021/09/17 10:27:08;;;;;;;2.90;0.75;;;17.10;99.90;;;;;;5015238;28;20621;-95
2021/09/17 10:29:44;;;;;;;2.45;0.57;;;17.10;99.90;;;;;;5017873;28;20178;-96
2021/09/17 10:32:40;;;;;;;2.47;0.80;;;17.10;99.90;;;;;;5013969;28;20190;-96
2021/09/17 10:35:19;;;;;;;3.20;0.77;;;17.00;99.90;;;;;;5018102;28;20243;-96
2021/09/17 10:38:19;;;;;;;6.13;1.08;;;17.00;99.90;;;;;;5017714;28;20217;-96
2021/09/17 10:40:52;;;;;;;4.95;1.95;;;16.90;99.90;;;;;;5014342;28;20257;-96
2021/09/17 10:43:24;;;;;;;2.53;0.85;;;16.80;99.90;;;;;;5015332;28;20177;-95
2021/09/17 10:45:52;;;;;;;2.17;0.80;;;16.70;99.90;;;;;;5015658;28;20179;-96
2021/09/17 10:48:30;;;;;;;1.83;0.80;;;16.80;99.90;;;;;;5016921;28;20179;-95
2021/09/17 10:51:05;;;;;;;3.83;0.70;;;16.90;99.90;;;;;;5017446;28;20206;-95
2021/09/17 10:53:40;;;;;;;2.17;0.60;;;17.00;99.90;;;;;;5016357;28;20197;-95
2021/09/17 10:56:16;;;;;;;4.93;0.88;;;17.10;99.90;;;;;;5017898;28;20552;-95
2021/09/17 10:58:46;;;;;;;3.08;0.90;;;17.10;99.90;;;;;;5031264;28;20217;-96
2021/09/17 11:01:15;;;;;;;3.63;0.80;;;17.10;99.90;;;;;;5035199;28;20179;-96
2021/09/17 11:03:47;;;;;;;3.67;0.80;;;17.10;99.90;;;;;;5034980;28;20182;-96
2021/09/17 11:08:47;;;;;;;1.63;0.73;;;16.90;99.90;;;;;;5020578;28;20194;-96
2021/09/17 11:11:49;;;;;;;1.40;0.70;;;16.80;99.90;;;;;;5019732;28;20192;-96
2021/09/17 11:14:16;;;;;;;2.33;0.80;;;16.80;99.90;;;;;;5032862;28;20179;-96
2021/09/17 11:16:45;;;;;;;3.65;0.90;;;16.70;99.90;;;;;;5016071;28;20266;-95
2021/09/17 11:19:17;;;;;;;4.57;0.90;;;16.70;99.90;;;;;;5014003;28;20250;-96
2021/09/17 11:21:47;;;;;;;2.03;0.70;;;16.70;99.90;;;;;;5015696;28;20203;-96
2021/09/17 11:24:20;;;;;;;1.80;0.63;;;16.70;99.90;;;;;;5015727;28;20183;-95
2021/09/17 11:26:50;;;;;;;5.70;1.15;;;16.60;99.90;;;;;;5018815;28;20227;-96
2021/09/17 11:29:18;;;;;;;3.17;0.93;;;16.70;99.90;;;;;;5016342;28;20183;-96
2021/09/17 11:31:50;;;;;;;4.32;0.90;;;16.70;99.90;;;;;;5015504;28;20183;-95
2021/09/17 11:34:19;;;;;;;1.73;0.95;;;16.60;99.90;;;;;;5020560;28;20194;-96
2021/09/17 11:36:47;;;;;;;2.55;0.90;;;16.50;99.90;;;;;;5034222;28;20269;-95
2021/09/17 11:39:23;;;;;;;2.00;0.60;;;16.30;99.90;;;;;;5034708;28;20206;-95
2021/09/17 11:41:59;;;;;;;1.88;0.75;;;16.20;99.90;;;;;;5034404;28;20236;-96
2021/09/17 11:44:31;;;;;;;2.42;0.80;;;16.20;99.90;;;;;;5033960;28;20170;-96
2021/09/17 11:46:58;;;;;;;4.13;0.90;;;16.10;99.90;;;;;;5033919;28;20174;-96
2021/09/17 11:49:29;;;;;;;3.30;0.55;;;16.00;99.90;;;;;;5035346;28;20185;-96
2021/09/17 11:52:13;;;;;;;2.25;0.80;;;16.00;99.90;;;;;;5034294;28;20178;-96
2021/09/17 11:54:40;;;;;;;1.73;0.50;;;16.00;99.90;;;;;;5036012;28;20206;-95
2021/09/17 11:57:12;;;;;;;4.03;0.82;;;16.00;99.90;;;;;;5037452;28;20532;-95
2021/09/17 11:59:45;;;;;;;4.55;0.77;;;16.10;99.90;;;;;;5037863;28;20259;-96
2021/09/17 12:02:22;;;;;;;0.88;0.63;;;16.20;99.90;;;;;;5035924;28;20610;-96
2021/09/17 12:04:57;;;;;;;3.80;1.00;;;16.30;99.90;;;;;;5027018;28;20194;-96
2021/09/17 12:07:24;;;;;;;3.10;0.93;;;16.30;99.90;;;;;;5015408;28;20593;-95
2021/09/17 12:09:51;;;;;;;2.17;0.90;;;16.30;99.90;;;;;;5020858;28;20199;-96
2021/09/17 12:12:34;;;;;;;1.95;0.55;;;16.30;99.90;;;;;;5021337;28;20183;-96
2021/09/17 12:15:05;;;;;;;2.97;0.70;;;16.40;99.90;;;;;;5019629;28;20227;-96
2021/09/17 12:17:33;;;;;;;2.47;0.57;;;16.40;99.90;;;;;;5017326;28;20184;-96
2021/09/17 12:20:08;;;;;;;1.40;0.40;;;16.40;99.90;;;;;;5017230;28;20213;-96
2021/09/17 12:22:53;;;;;;;2.95;0.68;;;16.40;99.90;;;;;;5017316;28;20182;-96
2021/09/17 12:25:25;;;;;;;3.47;0.55;;;16.40;99.90;;;;;;5039179;23;20234;-96
2021/09/17 12:28:07;;;;;;;2.72;0.55;;;16.50;99.90;;;;;;5021297;28;20156;-96
2021/09/17 12:30:35;;;;;;;1.48;0.47;;;16.50;99.90;;;;;;5018412;28;20175;-96
2021/09/17 12:33:11;;;;;;;2.67;0.68;;;16.50;99.90;;;;;;5017983;28;20176;-96
2021/09/17 12:35:40;;;;;;;1.05;0.52;;;16.50;99.90;;;;;;5019063;28;20187;-95
2021/09/17 12:38:06;;;;;;;1.58;0.52;;;16.60;99.90;;;;;;5019108;28;20176;-96
2021/09/17 12:40:37;;;;;;;1.90;0.80;;;16.60;99.90;;;;;;5018397;28;20215;-96
2021/09/17 12:43:28;;;;;;;3.30;0.50;;;16.60;99.90;;;;;;5018359;28;20167;-96
2021/09/17 12:46:01;;;;;;;5.43;0.80;;;16.70;99.90;;;;;;5018787;28;20194;-96
2021/09/17 12:48:29;;;;;;;1.70;0.70;;;16.80;99.90;;;;;;5018248;28;20203;-95
2021/09/17 12:50:55;;;;;;;0.98;0.57;;;16.90;99.90;;;;;;5019148;28;20168;-96
2021/09/17 12:53:32;;;;;;;3.20;1.20;;;16.90;99.90;;;;;;5018362;28;20187;-96
2021/09/17 12:56:10;;;;;;;4.20;1.50;;;16.90;99.90;;;;;;5003151;28;20179;-96